Time;durP1;ratioP1;P1;durP2;ratioP2;P2;SDS_P1;SDS_P2;PMS_P1;PMS_P2;Temp;Humidity;BMP_temperature;BMP_pressure;BME280_temperature;BME280_humidity;BME280_pressure;Samples;Min_cycle;Max_cycle;Signal;HPM_P1;HPM_P2
2022/01/05 00:01:48;;;;;;;3.65;0.47;;;;;;;4.03;78.62;100248.66;4972263;28;119453;-41
2022/01/05 00:04:14;;;;;;;6.50;0.93;;;;;;;4.02;77.57;100254.94;4972371;28;126805;-41
2022/01/05 00:06:39;;;;;;;0.50;0.25;;;;;;;4.09;78.00;100271.63;4973049;28;99266;-41
2022/01/05 00:09:05;;;;;;;1.00;0.35;;;;;;;4.00;77.41;100272.94;4972749;28;116767;-41
2022/01/05 00:11:30;;;;;;;0.40;0.17;;;;;;;4.03;77.30;100274.59;4973413;28;100823;-42
2022/01/05 00:13:58;;;;;;;2.35;0.43;;;;;;;4.02;76.73;100288.91;4972957;28;97990;-42
2022/01/05 00:16:24;;;;;;;1.45;0.43;;;;;;;3.91;77.35;100261.72;4973059;28;97867;-42
2022/01/05 00:18:49;;;;;;;0.13;0.13;;;;;;;3.99;77.91;100278.34;4972539;28;101738;-41
2022/01/05 00:21:14;;;;;;;0.40;0.30;;;;;;;3.86;77.38;100259.22;4972862;28;101203;-41
2022/01/05 00:23:39;;;;;;;0.32;0.10;;;;;;;3.84;77.62;100258.47;4972967;28;102111;-41
2022/01/05 00:26:05;;;;;;;0.20;0.20;;;;;;;3.96;77.72;100295.44;4972035;28;125178;-42
2022/01/05 00:28:31;;;;;;;0.38;0.22;;;;;;;3.95;77.65;100290.13;4973062;28;96495;-41
2022/01/05 00:30:56;;;;;;;0.85;0.47;;;;;;;3.88;78.05;100277.94;4971759;28;96828;-42
2022/01/05 00:33:22;;;;;;;1.40;0.63;;;;;;;3.91;76.83;100277.78;4972529;28;108921;-41
2022/01/05 00:35:47;;;;;;;0.60;0.28;;;;;;;3.82;77.25;100266.56;4973262;28;97380;-42
2022/01/05 00:38:12;;;;;;;0.08;0.08;;;;;;;3.92;77.50;100292.94;4972477;28;107813;-41
2022/01/05 00:40:37;;;;;;;0.90;0.40;;;;;;;3.84;77.61;100279.88;4972280;28;112771;-41
2022/01/05 00:43:03;;;;;;;3.35;0.82;;;;;;;3.91;76.76;100283.16;4972280;28;97963;-42
2022/01/05 00:45:28;;;;;;;2.40;0.50;;;;;;;3.70;76.68;100248.34;4972006;28;124591;-41
2022/01/05 00:47:53;;;;;;;0.17;0.17;;;;;;;3.79;77.09;100264.00;4972630;28;101276;-41
2022/01/05 00:50:19;;;;;;;1.92;0.73;;;;;;;3.89;76.65;100288.59;4972755;28;96820;-41
2022/01/05 00:52:44;;;;;;;0.38;0.25;;;;;;;3.87;76.73;100276.19;4972694;28;97943;-42
2022/01/05 00:55:10;;;;;;;0.05;0.05;;;;;;;3.70;77.44;100256.38;4971898;28;120207;-41
2022/01/05 00:57:35;;;;;;;0.40;0.35;;;;;;;3.77;76.79;100271.25;4971049;28;96536;-42
2022/01/05 01:00:01;;;;;;;0.68;0.40;;;;;;;3.69;76.97;100259.97;4973031;28;96749;-41
2022/01/05 01:02:26;;;;;;;1.95;0.60;;;;;;;3.66;76.97;100262.78;4970457;28;100869;-41
2022/01/05 01:04:52;;;;;;;1.02;0.35;;;;;;;3.61;75.55;100264.78;4971783;28;119507;-42
2022/01/05 01:07:17;;;;;;;3.75;0.40;;;;;;;3.73;77.02;100277.66;4972267;28;96590;-42
2022/01/05 01:09:42;;;;;;;0.20;0.10;;;;;;;3.74;76.50;100303.53;4972814;28;96784;-42
2022/01/05 01:12:09;;;;;;;0.45;0.22;;;;;;;3.70;76.44;100290.31;4972287;28;97897;-41
2022/01/05 01:14:34;;;;;;;0.20;0.10;;;;;;;3.73;75.91;100309.78;4970886;28;101120;-41
2022/01/05 01:16:59;;;;;;;0.93;0.45;;;;;;;3.53;76.41;100264.25;4972586;28;96694;-41
2022/01/05 01:19:25;;;;;;;1.02;0.15;;;;;;;3.58;76.75;100281.00;4971872;28;116791;-41
2022/01/05 01:21:50;;;;;;;1.35;0.13;;;;;;;3.69;76.46;100292.09;4971648;28;119934;-42
2022/01/05 01:24:15;;;;;;;0.10;0.00;;;;;;;3.61;76.40;100286.22;4972245;28;108969;-41
2022/01/05 01:26:40;;;;;;;0.00;0.00;;;;;;;3.67;75.70;100299.34;4972123;28;96542;-42
2022/01/05 01:29:06;;;;;;;0.13;0.13;;;;;;;3.53;76.83;100280.31;4972398;28;96816;-42
2022/01/05 01:31:31;;;;;;;0.38;0.17;;;;;;;3.58;76.77;100283.66;4969544;28;129104;-41
2022/01/05 01:33:56;;;;;;;1.95;0.25;;;;;;;3.62;76.66;100298.66;4972216;28;97859;-41
2022/01/05 01:36:22;;;;;;;0.68;0.52;;;;;;;3.63;76.42;100297.72;4972086;28;96483;-42
2022/01/05 01:38:48;;;;;;;0.28;0.10;;;;;;;3.58;76.02;100297.06;4975700;28;96775;-41
2022/01/05 01:41:16;;;;;;;1.90;1.00;;;;;;;3.60;76.25;100297.88;4975158;28;99369;-42
2022/01/05 01:43:42;;;;;;;1.10;0.68;;;;;;;3.59;76.63;100296.09;4974384;28;97830;-42
2022/01/05 01:46:08;;;;;;;0.60;0.38;;;;;;;3.35;76.32;100252.50;4975290;28;113179;-41
2022/01/05 01:48:34;;;;;;;0.75;0.40;;;;;;;3.56;76.47;100294.44;4974640;28;96762;-41
2022/01/05 01:50:59;;;;;;;0.20;0.20;;;;;;;3.58;76.77;100302.41;4975127;28;97964;-41
2022/01/05 01:53:24;;;;;;;4.40;1.00;;;;;;;3.47;75.53;100291.28;4975280;28;99739;-41
2022/01/05 01:55:51;;;;;;;1.40;0.25;;;;;;;3.38;76.27;100279.13;4973660;28;123571;-42
2022/01/05 01:58:19;;;;;;;0.90;0.22;;;;;;;3.49;75.63;100300.13;4974117;28;96810;-42
2022/01/05 02:00:44;;;;;;;0.32;0.22;;;;;;;3.42;75.98;100279.88;4973687;28;100754;-42
2022/01/05 02:03:12;;;;;;;0.38;0.25;;;;;;;3.49;76.17;100292.94;4974994;28;97830;-42
2022/01/05 02:05:38;;;;;;;0.30;0.13;;;;;;;3.50;75.36;100304.53;4975419;28;96414;-42
2022/01/05 02:08:03;;;;;;;0.28;0.28;;;;;;;3.45;76.07;100295.81;4975550;28;96794;-41
2022/01/05 02:10:29;;;;;;;1.33;0.73;;;;;;;3.39;76.55;100286.25;4974872;28;99296;-42
2022/01/05 02:12:54;;;;;;;0.75;0.50;;;;;;;3.32;76.09;100277.59;4975496;28;97948;-41
2022/01/05 02:15:20;;;;;;;10.45;0.43;;;;;;;3.51;76.07;100314.31;4974984;28;100668;-42
2022/01/05 02:17:56;;;;;;;0.40;0.22;;;;;;;3.38;75.40;100296.09;4975251;28;96731;-42
2022/01/05 02:20:25;;;;;;;0.30;0.15;;;;;;;3.35;75.55;100290.84;4974661;28;98296;-41
2022/01/05 02:22:52;;;;;;;0.45;0.38;;;;;;;3.49;75.84;100309.00;4973669;28;100745;-41
2022/01/05 02:25:18;;;;;;;2.65;0.65;;;;;;;3.42;75.69;100312.00;4973698;28;96584;-41
2022/01/05 02:27:45;;;;;;;4.95;0.68;;;;;;;3.38;76.42;100300.53;4975059;28;96849;-42
2022/01/05 02:30:13;;;;;;;7.63;0.73;;;;;;;3.52;76.95;100327.63;4973409;28;100179;-41
2022/01/05 02:32:38;;;;;;;0.05;0.03;;;;;;;3.42;76.79;100302.16;4973325;28;100833;-42
2022/01/05 02:35:05;;;;;;;0.30;0.30;;;;;;;3.54;75.89;100323.06;4974855;28;97093;-41
2022/01/05 02:37:31;;;;;;;0.35;0.15;;;;;;;3.51;76.36;100323.22;4973539;28;96801;-41
2022/01/05 02:39:56;;;;;;;1.13;0.35;;;;;;;3.38;76.57;100300.53;4974749;28;97354;-42
2022/01/05 02:42:29;;;;;;;0.60;0.38;;;;;;;3.40;76.43;100298.69;4974977;28;97316;-42
2022/01/05 02:45:04;;;;;;;3.50;0.32;;;;;;;3.52;76.81;100318.72;4972771;28;97754;-42
2022/01/05 02:47:29;;;;;;;5.72;0.93;;;;;;;3.51;76.82;100320.53;4973199;28;97620;-41
2022/01/05 02:49:59;;;;;;;11.77;1.15;;;;;;;3.36;76.44;100281.00;4971743;28;121572;-42
2022/01/05 02:52:24;;;;;;;2.03;0.75;;;;;;;3.56;76.53;100318.53;4972987;28;100784;-41
2022/01/05 02:54:50;;;;;;;0.60;0.40;;;;;;;3.57;76.90;100316.72;4974758;28;96590;-42
2022/01/05 02:57:15;;;;;;;8.32;0.40;;;;;;;3.49;77.19;100313.50;4974553;28;96831;-42
2022/01/05 02:59:40;;;;;;;0.55;0.40;;;;;;;3.45;75.85;100299.34;4974146;28;101347;-42
2022/01/05 03:02:06;;;;;;;0.80;0.57;;;;;;;3.57;77.16;100319.41;4974353;28;97221;-41
2022/01/05 03:04:31;;;;;;;0.38;0.20;;;;;;;3.46;76.86;100306.47;4974092;28;97599;-41
2022/01/05 03:06:57;;;;;;;0.43;0.25;;;;;;;3.61;77.43;100329.06;4974185;28;96805;-42
2022/01/05 03:09:22;;;;;;;0.10;0.10;;;;;;;3.52;76.74;100319.59;4973470;28;99483;-42
2022/01/05 03:11:47;;;;;;;0.38;0.30;;;;;;;3.36;76.75;100297.94;4973472;28;119190;-41
2022/01/05 03:14:12;;;;;;;0.38;0.38;;;;;;;3.53;77.06;100325.84;4973613;28;113329;-42
2022/01/05 03:16:38;;;;;;;0.77;0.45;;;;;;;3.59;77.19;100338.97;4973560;28;121442;-42
2022/01/05 03:19:03;;;;;;;1.58;0.75;;;;;;;3.46;76.55;100327.03;4972994;28;126521;-42
2022/01/05 03:21:28;;;;;;;1.85;0.65;;;;;;;3.57;77.51;100348.84;4973669;28;99169;-42
2022/01/05 03:23:54;;;;;;;0.20;0.20;;;;;;;3.59;77.32;100355.88;4973362;28;122700;-41
2022/01/05 03:26:19;;;;;;;0.75;0.32;;;;;;;3.45;76.73;100327.94;4974444;28;97651;-42
2022/01/05 03:28:44;;;;;;;0.90;0.20;;;;;;;3.49;76.91;100337.59;4973709;28;99272;-42
2022/01/05 03:31:09;;;;;;;7.85;0.45;;;;;;;3.44;77.44;100328.88;4972992;28;120151;-42
2022/01/05 03:33:35;;;;;;;1.60;0.65;;;;;;;3.59;77.33;100363.91;4972414;28;122807;-42
2022/01/05 03:36:00;;;;;;;2.55;0.90;;;;;;;3.46;77.20;100335.91;4972212;28;97011;-42
2022/01/05 03:38:28;;;;;;;1.10;0.43;;;;;;;3.46;77.27;100332.38;4973540;28;105517;-42
2022/01/05 03:40:54;;;;;;;0.60;0.17;;;;;;;3.58;77.71;100351.47;4972069;28;101445;-42
2022/01/05 03:43:20;;;;;;;4.38;0.73;;;;;;;3.40;77.53;100330.81;4972266;28;96601;-42
2022/01/05 03:45:45;;;;;;;0.85;0.50;;;;;;;3.50;77.57;100342.00;4973825;28;96741;-42
2022/01/05 03:48:13;;;;;;;1.23;0.30;;;;;;;3.46;77.48;100330.56;4972000;28;100731;-42
2022/01/05 03:50:39;;;;;;;1.00;0.50;;;;;;;3.59;77.62;100358.56;4972163;28;101073;-42
2022/01/05 03:53:06;;;;;;;1.55;0.70;;;;;;;3.63;77.21;100359.31;4972111;28;96722;-42
2022/01/05 03:55:32;;;;;;;1.20;0.55;;;;;;;3.57;77.87;100351.53;4972130;28;96792;-42
2022/01/05 03:57:58;;;;;;;0.93;0.60;;;;;;;3.56;77.08;100350.66;4971694;28;98057;-42
2022/01/05 04:00:24;;;;;;;2.72;0.47;;;;;;;3.71;77.54;100378.63;4972693;28;104703;-41
2022/01/05 04:02:50;;;;;;;1.55;0.25;;;;;;;3.71;77.55;100375.06;4972854;28;97451;-42
2022/01/05 04:05:21;;;;;;;0.75;0.25;;;;;;;3.73;77.62;100376.75;4973453;28;96765;-42
2022/01/05 04:07:46;;;;;;;0.80;0.43;;;;;;;3.70;77.45;100362.63;4973137;28;99187;-42
2022/01/05 04:10:12;;;;;;;1.08;0.30;;;;;;;3.63;77.48;100347.75;4973070;28;99125;-42
2022/01/05 04:12:37;;;;;;;6.20;0.60;;;;;;;3.73;77.34;100376.75;4973373;28;96523;-41
2022/01/05 04:15:03;;;;;;;1.08;0.40;;;;;;;3.66;77.54;100367.22;4973742;28;96691;-41
2022/01/05 04:17:29;;;;;;;1.10;0.55;;;;;;;3.64;77.13;100363.72;4955224;28;102267;-42
2022/01/05 04:19:54;;;;;;;2.45;0.88;;;;;;;3.71;77.61;100367.03;4972058;28;126131;-42
2022/01/05 04:22:19;;;;;;;7.78;0.75;;;;;;;3.68;77.74;100372.53;4972568;28;96534;-42
2022/01/05 04:24:45;;;;;;;3.90;0.98;;;;;;;3.75;77.69;100380.25;4973126;28;96783;-41
2022/01/05 04:27:10;;;;;;;4.70;0.35;;;;;;;3.70;77.19;100376.03;4973074;28;97667;-42
2022/01/05 04:29:36;;;;;;;1.48;0.40;;;;;;;3.71;77.37;100372.41;4971961;28;126933;-42
2022/01/05 04:32:01;;;;;;;0.82;0.50;;;;;;;3.84;77.06;100395.06;4972898;28;96596;-41
2022/01/05 04:34:26;;;;;;;0.08;0.08;;;;;;;3.74;77.85;100382.97;4973105;28;96675;-42
2022/01/05 04:36:52;;;;;;;0.80;0.43;;;;;;;3.74;77.11;100389.22;4971564;28;98466;-42
2022/01/05 04:39:17;;;;;;;0.95;0.55;;;;;;;3.80;77.30;100390.78;4972935;28;105554;-41
2022/01/05 04:41:42;;;;;;;1.02;0.43;;;;;;;3.89;77.38;100405.59;4973012;28;96465;-41
2022/01/05 04:44:08;;;;;;;1.10;0.80;;;;;;;3.88;77.20;100393.13;4972401;28;110927;-42
2022/01/05 04:46:33;;;;;;;0.85;0.38;;;;;;;3.86;77.64;100395.00;4972223;28;97855;-42
2022/01/05 04:48:58;;;;;;;6.72;0.85;;;;;;;3.90;76.97;100400.16;4971986;28;117369;-42
2022/01/05 04:51:24;;;;;;;1.40;0.73;;;;;;;3.87;77.12;100384.22;4971704;28;121791;-42
2022/01/05 04:53:49;;;;;;;1.75;0.55;;;;;;;3.86;77.09;100386.97;4971935;28;121555;-41
2022/01/05 04:56:14;;;;;;;0.57;0.32;;;;;;;3.92;76.90;100397.44;4972288;28;99406;-42
2022/01/05 04:58:42;;;;;;;3.92;0.40;;;;;;;3.92;77.27;100403.66;4971679;28;127086;-42
2022/01/05 05:01:08;;;;;;;2.25;0.47;;;;;;;3.81;77.35;100380.00;4972155;28;98559;-42
2022/01/05 05:03:33;;;;;;;1.20;0.52;;;;;;;3.82;77.63;100387.09;4973042;28;96640;-41
2022/01/05 05:05:58;;;;;;;3.05;0.77;;;;;;;3.94;77.82;100408.97;4972096;28;111476;-42
2022/01/05 05:08:23;;;;;;;6.57;0.60;;;;;;;3.94;77.49;100412.50;4972520;28;97815;-42
2022/01/05 05:10:49;;;;;;;0.32;0.32;;;;;;;3.88;77.94;100407.38;4972158;28;96559;-42
2022/01/05 05:13:14;;;;;;;1.33;0.35;;;;;;;3.95;77.73;100414.25;4970212;28;97292;-42
2022/01/05 05:15:40;;;;;;;1.77;0.45;;;;;;;3.84;77.27;100395.06;4972473;28;97345;-42
2022/01/05 05:18:06;;;;;;;0.63;0.47;;;;;;;3.95;77.15;100416.91;4972086;28;98994;-42
2022/01/05 05:20:32;;;;;;;0.30;0.30;;;;;;;3.98;77.87;100430.22;4970904;28;96752;-41
2022/01/05 05:22:58;;;;;;;0.08;0.08;;;;;;;3.82;77.44;100399.63;4972473;28;96771;-42
2022/01/05 05:25:23;;;;;;;2.33;0.45;;;;;;;3.96;77.10;100424.03;4970748;28;101568;-42
2022/01/05 05:27:49;;;;;;;0.35;0.30;;;;;;;3.99;77.41;100431.94;4972367;28;104308;-41
2022/01/05 05:30:14;;;;;;;0.20;0.10;;;;;;;3.75;77.24;100384.75;4972446;28;96589;-42
2022/01/05 05:32:39;;;;;;;0.50;0.50;;;;;;;3.98;77.36;100432.91;4972173;28;100197;-41
2022/01/05 05:35:05;;;;;;;0.88;0.32;;;;;;;3.87;77.14;100410.16;4970947;28;123504;-41
2022/01/05 05:37:31;;;;;;;3.53;0.73;;;;;;;3.80;77.66;100399.69;4972238;28;97784;-42
2022/01/05 05:39:57;;;;;;;2.45;0.52;;;;;;;3.90;77.52;100412.69;4972251;28;96391;-41
2022/01/05 05:42:22;;;;;;;1.08;0.47;;;;;;;4.00;77.23;100423.00;4972273;28;96735;-41
2022/01/05 05:44:47;;;;;;;0.20;0.20;;;;;;;4.02;77.27;100421.09;4971821;28;99613;-42
2022/01/05 05:47:13;;;;;;;0.75;0.25;;;;;;;3.99;77.28;100425.72;4971884;28;97343;-42
2022/01/05 05:49:38;;;;;;;0.20;0.13;;;;;;;4.03;76.92;100428.22;4970953;28;122554;-41
2022/01/05 05:52:04;;;;;;;0.85;0.55;;;;;;;3.85;76.85;100396.81;4971148;28;96941;-42
2022/01/05 05:54:30;;;;;;;6.50;0.38;;;;;;;4.05;77.28;100425.44;4972138;28;97303;-42
2022/01/05 05:56:55;;;;;;;0.70;0.45;;;;;;;4.06;77.33;100423.66;4971687;28;97894;-41
2022/01/05 05:59:20;;;;;;;0.65;0.43;;;;;;;4.06;77.13;100415.63;4971612;28;96521;-42
2022/01/05 06:01:46;;;;;;;0.52;0.40;;;;;;;4.08;77.08;100419.97;4970713;28;117829;-41
2022/01/05 06:04:11;;;;;;;1.15;0.77;;;;;;;4.09;77.58;100429.75;4971873;28;97850;-41
2022/01/05 06:06:37;;;;;;;4.25;1.17;;;;;;;3.99;76.83;100404.28;4971518;28;99111;-42
2022/01/05 06:09:02;;;;;;;2.10;0.68;;;;;;;4.00;77.27;100400.66;4972391;28;96440;-41
2022/01/05 06:11:28;;;;;;;0.45;0.35;;;;;;;3.94;77.97;100406.28;4972069;28;96886;-42
2022/01/05 06:13:54;;;;;;;0.60;0.20;;;;;;;4.03;77.18;100417.50;4971487;28;99303;-41
2022/01/05 06:16:20;;;;;;;7.65;1.80;;;;;;;3.93;77.06;100409.88;4971760;28;97898;-42
2022/01/05 06:18:45;;;;;;;2.47;0.32;;;;;;;4.08;77.22;100433.38;4971779;28;96691;-42
2022/01/05 06:21:10;;;;;;;1.48;0.43;;;;;;;4.10;77.25;100439.56;4971089;28;115574;-42
2022/01/05 06:23:36;;;;;;;1.63;0.60;;;;;;;4.04;77.23;100426.41;4972519;28;98880;-42
2022/01/05 06:26:01;;;;;;;1.00;0.38;;;;;;;4.18;77.12;100442.78;4974760;28;99195;-41
2022/01/05 06:28:26;;;;;;;0.80;0.28;;;;;;;4.19;77.72;100444.50;4975231;28;96783;-42
2022/01/05 06:30:52;;;;;;;0.63;0.40;;;;;;;4.21;77.54;100452.50;4974999;28;96763;-42
2022/01/05 06:33:17;;;;;;;0.70;0.40;;;;;;;4.19;77.21;100443.63;4974994;28;97826;-41
2022/01/05 06:35:42;;;;;;;1.25;0.35;;;;;;;4.17;77.31;100448.19;4974815;28;97716;-42
2022/01/05 06:38:08;;;;;;;3.50;0.22;;;;;;;4.18;77.31;100444.59;4974950;28;96562;-42
2022/01/05 06:40:33;;;;;;;1.10;0.63;;;;;;;4.11;77.65;100435.94;4973703;28;96772;-42
2022/01/05 06:43:00;;;;;;;7.50;1.10;;;;;;;4.09;77.79;100429.75;4974680;28;97934;-42
2022/01/05 06:45:26;;;;;;;12.75;0.60;;;;;;;4.24;77.87;100449.69;4974470;28;97940;-42
2022/01/05 06:47:51;;;;;;;4.53;0.95;;;;;;;4.16;77.30;100446.47;4974307;28;96640;-42
2022/01/05 06:50:16;;;;;;;2.55;0.73;;;;;;;4.13;77.82;100450.13;4974476;28;96883;-42
2022/01/05 06:52:42;;;;;;;0.93;0.55;;;;;;;4.18;77.57;100455.31;4974626;28;97576;-41
2022/01/05 06:55:09;;;;;;;4.47;0.90;;;;;;;4.27;77.73;100468.34;4973534;28;119911;-41
2022/01/05 06:57:37;;;;;;;0.35;0.35;;;;;;;4.18;77.82;100442.78;4973022;28;96738;-41
2022/01/05 07:00:04;;;;;;;1.45;0.60;;;;;;;4.29;77.81;100469.16;4972829;28;96959;-41
2022/01/05 07:02:29;;;;;;;1.70;0.50;;;;;;;4.01;78.15;100424.72;4972244;28;102676;-41
2022/01/05 07:04:54;;;;;;;0.88;0.43;;;;;;;4.08;78.00;100444.09;4974034;28;120465;-41
2022/01/05 07:07:20;;;;;;;0.40;0.35;;;;;;;4.12;77.84;100455.56;4973554;28;122412;-42
2022/01/05 07:09:45;;;;;;;2.58;0.17;;;;;;;4.17;77.88;100465.16;4973494;28;118416;-41
2022/01/05 07:12:10;;;;;;;5.70;0.57;;;;;;;4.18;78.15;100472.25;4973853;28;97966;-42
2022/01/05 07:14:36;;;;;;;0.32;0.22;;;;;;;4.07;78.21;100460.22;4973946;28;97806;-42
2022/01/05 07:17:01;;;;;;;1.70;0.28;;;;;;;4.14;78.12;100469.75;4974418;28;96469;-41
2022/01/05 07:19:26;;;;;;;5.28;0.90;;;;;;;4.22;77.89;100479.25;4973563;28;109621;-42
2022/01/05 07:21:52;;;;;;;1.35;0.68;;;;;;;4.12;78.67;100472.50;4973572;28;99570;-42
2022/01/05 07:24:19;;;;;;;4.38;0.40;;;;;;;4.12;78.31;100477.00;4974061;28;97779;-42
2022/01/05 07:26:46;;;;;;;4.47;0.95;;;;;;;4.07;78.58;100477.19;4974098;28;96760;-42
2022/01/05 07:29:12;;;;;;;1.00;0.22;;;;;;;4.07;78.35;100493.25;4972939;28;96901;-42
2022/01/05 07:31:39;;;;;;;3.15;1.15;;;;;;;4.19;78.49;100522.25;4972321;28;100978;-41
2022/01/05 07:34:04;;;;;;;1.65;0.38;;;;;;;4.21;78.85;100523.06;4973629;28;97317;-41
2022/01/05 07:36:29;;;;;;;8.32;0.77;;;;;;;4.22;78.37;100514.09;4972964;28;96688;-42
2022/01/05 07:38:54;;;;;;;2.45;0.40;;;;;;;4.24;78.57;100514.91;4972451;28;96935;-41
2022/01/05 07:41:20;;;;;;;2.22;0.95;;;;;;;4.14;78.61;100501.94;4973683;28;97998;-42
2022/01/05 07:43:45;;;;;;;1.80;0.50;;;;;;;4.30;78.89;100532.53;4971944;28;99591;-42
2022/01/05 07:46:11;;;;;;;1.85;0.50;;;;;;;4.31;78.71;100528.91;4974322;28;96798;-41
2022/01/05 07:48:36;;;;;;;3.03;0.60;;;;;;;4.30;78.89;100534.34;4983660;28;96864;-41
2022/01/05 07:51:02;;;;;;;0.40;0.35;;;;;;;4.30;78.98;100520.94;4973134;28;99191;-41
2022/01/05 07:53:27;;;;;;;0.55;0.20;;;;;;;4.30;79.04;100521.81;4973794;28;97857;-41
2022/01/05 07:55:52;;;;;;;3.10;1.20;;;;;;;4.35;78.76;100527.88;4972964;28;100352;-42
2022/01/05 07:58:20;;;;;;;0.43;0.22;;;;;;;4.41;78.75;100540.13;4973578;28;96789;-41
2022/01/05 08:00:45;;;;;;;2.33;0.50;;;;;;;4.37;78.79;100522.44;4972765;28;98000;-41
2022/01/05 08:03:10;;;;;;;2.38;1.15;;;;;;;4.48;78.78;100541.63;4973094;28;98974;-41
2022/01/05 08:05:36;;;;;;;0.10;0.10;;;;;;;4.41;78.86;100529.41;4973323;28;99025;-41
2022/01/05 08:08:01;;;;;;;3.50;0.47;;;;;;;4.45;79.06;100556.03;4972660;28;120859;-42
2022/01/05 08:10:26;;;;;;;0.75;0.45;;;;;;;4.47;78.61;100529.16;4972707;28;115727;-42
2022/01/05 08:12:52;;;;;;;2.17;0.63;;;;;;;4.48;79.16;100528.22;4973259;28;97855;-42
2022/01/05 08:15:17;;;;;;;1.35;0.50;;;;;;;4.55;78.79;100543.13;4973495;28;96554;-41
2022/01/05 08:17:43;;;;;;;0.45;0.22;;;;;;;4.53;79.05;100536.97;4972910;28;119737;-42
2022/01/05 08:20:11;;;;;;;0.82;0.17;;;;;;;4.65;78.73;100570.47;4971522;28;100739;-42
2022/01/05 08:22:40;;;;;;;0.22;0.22;;;;;;;4.61;78.80;100569.69;4955503;28;101363;-42
2022/01/05 08:25:07;;;;;;;0.25;0.20;;;;;;;4.67;78.76;100573.91;4971261;28;96972;-42
2022/01/05 08:27:32;;;;;;;3.33;0.55;;;;;;;4.70;78.46;100571.13;4971538;28;97732;-42
2022/01/05 08:29:59;;;;;;;1.35;0.40;;;;;;;4.61;78.45;100558.09;4972110;28;127855;-42
2022/01/05 08:32:25;;;;;;;1.88;0.45;;;;;;;4.59;78.53;100559.97;4971569;28;101262;-42
2022/01/05 08:34:50;;;;;;;0.40;0.35;;;;;;;4.68;78.47;100570.31;4972272;28;116020;-42
2022/01/05 08:37:15;;;;;;;1.52;0.82;;;;;;;4.61;78.80;100558.09;4971994;28;120864;-42
2022/01/05 08:39:41;;;;;;;1.25;0.38;;;;;;;4.66;79.12;100589.16;4972986;28;97870;-42
2022/01/05 08:42:06;;;;;;;1.52;0.45;;;;;;;4.73;79.01;100594.28;4972706;28;99154;-42
2022/01/05 08:44:31;;;;;;;0.93;0.63;;;;;;;4.74;79.25;100601.38;4972992;28;96531;-42
2022/01/05 08:46:57;;;;;;;1.55;0.57;;;;;;;4.61;79.27;100575.06;4971851;28;121327;-42
2022/01/05 08:49:22;;;;;;;7.63;0.22;;;;;;;4.77;79.44;100612.00;4970774;28;127014;-42
2022/01/05 08:51:47;;;;;;;1.88;0.68;;;;;;;4.65;79.14;100592.78;4971996;28;119983;-42
2022/01/05 08:54:12;;;;;;;2.85;0.73;;;;;;;4.66;79.49;100589.16;4972100;28;115103;-42
2022/01/05 08:56:38;;;;;;;1.27;0.45;;;;;;;4.80;79.43;100619.91;4971632;28;115047;-42
2022/01/05 08:59:03;;;;;;;1.88;0.57;;;;;;;4.81;79.41;100621.66;4971116;28;99947;-42
2022/01/05 09:01:28;;;;;;;1.92;1.00;;;;;;;4.70;78.91;100608.69;4972126;28;97906;-41
2022/01/05 09:03:54;;;;;;;0.70;0.40;;;;;;;4.73;79.35;100610.38;4972177;28;110596;-42
2022/01/05 09:06:20;;;;;;;0.25;0.22;;;;;;;4.72;79.06;100611.28;4973051;28;96842;-42
2022/01/05 09:08:45;;;;;;;2.97;0.57;;;;;;;4.75;79.11;100603.13;4972389;28;99135;-42
2022/01/05 09:11:11;;;;;;;0.75;0.40;;;;;;;4.68;79.38;100598.00;4972362;28;97894;-42
2022/01/05 09:13:36;;;;;;;1.77;0.93;;;;;;;4.81;79.08;100618.97;4972157;28;96627;-42
2022/01/05 09:16:02;;;;;;;2.90;0.77;;;;;;;4.77;79.31;100606.63;4972697;28;96798;-42
2022/01/05 09:18:28;;;;;;;1.70;0.60;;;;;;;4.90;79.21;100640.91;4972353;28;98046;-42
2022/01/05 09:20:54;;;;;;;3.35;0.60;;;;;;;4.92;79.04;100629.25;4970883;28;100908;-42
2022/01/05 09:23:19;;;;;;;2.05;0.75;;;;;;;4.81;79.21;100627.00;4972192;28;96503;-42
2022/01/05 09:25:44;;;;;;;5.13;0.63;;;;;;;4.88;79.48;100640.09;4972380;28;96735;-42
2022/01/05 09:28:10;;;;;;;1.58;0.32;;;;;;;4.92;79.27;100654.28;4971415;28;125815;-41
2022/01/05 09:30:36;;;;;;;1.70;0.38;;;;;;;4.83;79.44;100626.00;4972686;28;97844;-42
2022/01/05 09:33:02;;;;;;;6.13;0.93;;;;;;;4.82;79.48;100639.50;4972309;28;96494;-41
2022/01/05 09:35:27;;;;;;;0.22;0.22;;;;;;;4.95;79.75;100638.03;4970838;28;96853;-41
2022/01/05 09:38:09;;;;;;;1.70;0.90;;;;;;;4.93;79.40;100652.47;4971670;28;97923;-42
2022/01/05 09:43:21;;;;;;;0.82;0.28;;;;;;;5.06;79.49;100673.38;4972371;28;96457;-42
2022/01/05 09:46:16;;;;;;;8.73;0.88;;;;;;;5.09;79.90;100667.00;4972272;28;96714;-41
2022/01/05 09:48:53;;;;;;;4.30;0.63;;;;;;;5.11;79.61;100689.28;4971828;28;98255;-42
2022/01/05 09:51:22;;;;;;;17.30;0.82;;;;;;;5.10;79.31;100675.00;4971824;28;97951;-42
2022/01/05 09:53:49;;;;;;;1.67;0.38;;;;;;;5.00;79.13;100660.19;4972238;28;96636;-42
2022/01/05 09:56:15;;;;;;;2.55;0.30;;;;;;;5.14;79.35;100693.66;4970946;28;96972;-42
2022/01/05 09:58:42;;;;;;;2.55;0.63;;;;;;;5.17;79.67;100693.53;4973507;28;97875;-42
2022/01/05 10:01:07;;;;;;;2.08;0.57;;;;;;;5.10;79.31;100687.53;4974703;28;97424;-41
2022/01/05 10:03:33;;;;;;;0.90;0.60;;;;;;;5.08;79.88;100682.25;4974908;28;96541;-41
2022/01/05 10:06:00;;;;;;;2.05;0.28;;;;;;;5.16;79.92;100694.47;4974993;28;103211;-42
2022/01/05 10:08:25;;;;;;;3.83;1.00;;;;;;;5.10;80.47;100691.13;4975092;28;97939;-41
2022/01/05 10:10:50;;;;;;;2.50;0.28;;;;;;;5.13;80.77;100690.09;4974142;28;124065;-42
2022/01/05 10:13:16;;;;;;;0.80;0.40;;;;;;;5.20;80.76;100698.78;4975159;28;96639;-41
2022/01/05 10:15:41;;;;;;;0.88;0.65;;;;;;;5.31;80.20;100728.72;4974867;28;96751;-41
2022/01/05 10:18:12;;;;;;;5.88;0.35;;;;;;;5.30;80.72;100730.53;4975067;28;97386;-41
2022/01/05 10:20:53;;;;;;;1.95;0.50;;;;;;;5.25;80.27;100703.00;4973786;28;101123;-41
2022/01/05 10:23:33;;;;;;;0.90;0.65;;;;;;;5.31;80.35;100709.94;4973711;28;96502;-42
2022/01/05 10:26:17;;;;;;;7.53;1.17;;;;;;;5.47;80.45;100735.22;4973694;28;96650;-42
2022/01/05 10:28:43;;;;;;;1.92;0.93;;;;;;;5.44;80.22;100729.97;4974100;28;119440;-42
2022/01/05 10:31:17;;;;;;;0.10;0.10;;;;;;;5.49;80.57;100727.97;4973369;28;100891;-42
2022/01/05 10:33:42;;;;;;;1.65;0.60;;;;;;;5.56;80.66;100733.09;4973373;28;96631;-42
2022/01/05 10:36:07;;;;;;;2.13;0.82;;;;;;;5.48;81.09;100722.66;4974913;28;96732;-42
2022/01/05 10:38:33;;;;;;;4.38;0.60;;;;;;;5.57;81.10;100761.69;4973781;28;126797;-42
2022/01/05 10:40:58;;;;;;;7.43;0.63;;;;;;;5.50;81.43;100748.50;4974424;28;99415;-41
2022/01/05 10:43:23;;;;;;;0.55;0.30;;;;;;;5.40;81.62;100744.47;4972678;28;113635;-42
2022/01/05 10:45:53;;;;;;;6.60;0.57;;;;;;;5.43;81.74;100762.25;4974695;28;100949;-42
2022/01/05 10:48:20;;;;;;;6.03;0.73;;;;;;;5.47;81.98;100780.88;4974384;28;97060;-41
2022/01/05 10:51:00;;;;;;;1.55;1.02;;;;;;;5.39;82.36;100774.09;4972969;28;100959;-42
2022/01/05 10:53:26;;;;;;;1.15;0.60;;;;;;;5.31;82.69;100760.97;4972616;28;97252;-42
2022/01/05 10:55:51;;;;;;;1.02;0.25;;;;;;;5.29;82.77;100758.34;4974590;28;96782;-42
2022/01/05 10:58:19;;;;;;;1.10;0.20;;;;;;;5.32;83.25;100765.41;4972803;28;109376;-42
2022/01/05 11:00:52;;;;;;;0.80;0.38;;;;;;;5.45;83.25;100779.19;4972902;28;101325;-42
2022/01/05 11:03:24;;;;;;;0.30;0.20;;;;;;;5.46;83.55;100795.25;4974329;28;96553;-42
2022/01/05 11:06:18;;;;;;;1.20;0.68;;;;;;;5.49;82.94;100791.56;4974225;28;96772;-42
2022/01/05 11:09:04;;;;;;;2.47;0.25;;;;;;;5.50;83.80;100799.53;4972703;28;100874;-42
2022/01/05 11:11:41;;;;;;;1.83;0.82;;;;;;;5.52;83.28;100803.03;4972447;28;101023;-42
2022/01/05 11:14:13;;;;;;;0.47;0.38;;;;;;;5.48;83.29;100803.22;4973969;28;96722;-42
2022/01/05 11:16:43;;;;;;;8.25;0.40;;;;;;;5.38;83.41;100772.31;4972790;28;96840;-42
2022/01/05 11:19:24;;;;;;;13.23;0.82;;;;;;;5.54;83.80;100803.00;4973736;28;98182;-42
2022/01/05 11:22:12;;;;;;;3.08;0.93;;;;;;;5.57;83.21;100812.72;4974135;28;97869;-42
2022/01/05 11:24:50;;;;;;;4.93;0.68;;;;;;;5.59;83.23;100806.34;4972660;28;96768;-41
2022/01/05 11:27:17;;;;;;;4.80;0.55;;;;;;;5.59;82.89;100806.34;4972636;28;96800;-42
2022/01/05 11:29:43;;;;;;;6.00;0.70;;;;;;;5.60;83.14;100793.78;4972016;28;112016;-41